createdAt,value
2019-04-10T00:02:59.892Z,63.78
2019-04-10T00:13:00.431Z,63.67
2019-04-10T00:23:00.327Z,63.70
2019-04-10T00:27:59.108Z,64.02
2019-04-10T00:33:00.498Z,64.72
2019-04-10T00:37:59.706Z,63.35
2019-04-10T00:47:59.645Z,63.63
2019-04-10T00:52:58.829Z,64.37
2019-04-10T00:57:58.134Z,65.24
2019-04-10T01:02:59.110Z,64.26
2019-04-10T01:07:58.135Z,65.36
2019-04-10T01:12:58.771Z,65.54
2019-04-10T01:17:57.024Z,65.93
2019-04-10T01:22:57.325Z,64.74
2019-04-10T01:27:56.941Z,65.05
2019-04-10T01:32:56.483Z,65.89
2019-04-10T01:38:00.703Z,66.55
2019-04-10T01:43:06.645Z,66.24
2019-04-10T01:47:55.310Z,66.07
2019-04-10T01:52:57.430Z,66.56
2019-04-10T02:02:55.843Z,66.21
2019-04-10T02:08:03.232Z,67.29
2019-04-10T02:12:54.851Z,66.88
2019-04-10T02:17:55.119Z,66.73
2019-04-10T02:22:54.850Z,67.30
2019-04-10T02:27:56.384Z,68.50
2019-04-10T02:32:55.905Z,67.61
2019-04-10T02:37:56.644Z,67.64
2019-04-10T02:42:56.655Z,70.14
2019-04-10T02:47:55.899Z,72.41
2019-04-10T02:52:55.243Z,73.06
2019-04-10T02:57:54.311Z,73.03
2019-04-10T03:02:55.675Z,73.79
2019-04-10T03:07:55.834Z,74.59
2019-04-10T03:12:54.482Z,75.08
2019-04-10T03:17:54.978Z,75.46
2019-04-10T03:22:54.102Z,76.03
2019-04-10T03:27:53.227Z,76.48
2019-04-10T03:32:59.712Z,76.34
2019-04-10T03:37:52.899Z,77.11
2019-04-10T03:47:51.544Z,78.38
2019-04-10T03:52:51.698Z,78.95
2019-04-10T03:57:51.869Z,79.28
2019-04-10T04:02:50.453Z,79.65
2019-04-10T04:07:50.691Z,79.86
2019-04-10T04:12:50.960Z,80.23
2019-04-10T04:22:49.469Z,80.83
2019-04-10T04:27:49.656Z,81.11
2019-04-10T04:32:48.415Z,81.35
2019-04-10T04:37:48.435Z,81.93
2019-04-10T04:42:49.368Z,81.63
2019-04-10T04:47:48.087Z,81.40
2019-04-10T04:52:46.495Z,81.69
2019-04-10T05:02:47.040Z,81.84
2019-04-10T05:07:57.396Z,81.46
2019-04-10T05:12:45.626Z,81.60
2019-04-10T05:22:46.370Z,80.67
2019-04-10T05:27:45.540Z,79.63
2019-04-10T05:32:44.552Z,78.95
2019-04-10T05:37:45.722Z,78.56
2019-04-10T05:47:46.453Z,76.90
2019-04-10T05:52:45.094Z,74.33
2019-04-10T06:02:43.863Z,73.12
2019-04-10T06:07:43.443Z,70.30
2019-04-10T06:12:42.662Z,72.46
2019-04-10T06:17:42.735Z,71.80
2019-04-10T06:22:41.360Z,68.46
2019-04-10T06:27:41.421Z,63.20
2019-04-10T06:32:41.415Z,60.90
2019-04-10T06:37:42.810Z,60.77
2019-04-10T06:42:47.526Z,58.20
2019-04-10T06:47:42.440Z,57.84
2019-04-10T06:52:42.712Z,61.51
2019-04-10T06:57:49.177Z,62.99
2019-04-10T07:02:42.230Z,65.09
2019-04-10T07:07:51.448Z,64.87
2019-04-10T07:12:43.723Z,64.05
2019-04-10T07:17:43.263Z,61.10
2019-04-10T07:22:46.497Z,58.68
2019-04-10T07:27:42.015Z,58.55
2019-04-10T07:32:45.747Z,62.25
2019-04-10T07:37:40.983Z,62.17
2019-04-10T07:42:41.884Z,60.21
2019-04-10T07:47:40.543Z,59.97
2019-04-10T07:52:41.388Z,57.72
2019-04-10T08:02:40.671Z,56.61
2019-04-10T08:07:40.578Z,53.41
2019-04-10T08:12:47.407Z,55.43
2019-04-10T08:17:39.668Z,56.11
2019-04-10T08:22:39.291Z,52.00
2019-04-10T08:27:38.534Z,51.87
2019-04-10T08:32:50.926Z,50.16
2019-04-10T08:37:36.872Z,51.39
2019-04-10T08:42:35.624Z,53.53
2019-04-10T08:47:35.378Z,50.03
2019-04-10T08:52:36.911Z,50.44
2019-04-10T09:02:35.920Z,47.24
2019-04-10T09:12:35.665Z,45.83
2019-04-10T09:17:35.981Z,46.50
2019-04-10T09:22:49.799Z,48.30
2019-04-10T09:27:37.715Z,51.42
2019-04-10T09:32:36.788Z,49.67
2019-04-10T09:37:35.705Z,47.01
2019-04-10T09:42:35.821Z,48.11
2019-04-10T09:47:35.807Z,49.55
2019-04-10T09:52:35.679Z,48.58
2019-04-10T09:57:34.765Z,46.44
2019-04-10T10:02:34.186Z,45.56
2019-04-10T10:07:34.795Z,47.55
2019-04-10T10:12:34.729Z,45.00
2019-04-10T10:17:33.119Z,43.07
2019-04-10T10:22:33.525Z,42.85
2019-04-10T10:27:32.227Z,44.44
2019-04-10T10:32:31.236Z,42.28
2019-04-10T10:37:30.887Z,43.41
2019-04-10T10:42:31.769Z,43.41
2019-04-10T10:47:32.578Z,43.95
2019-04-10T10:52:31.360Z,47.90
2019-04-10T10:57:29.815Z,45.90
2019-04-10T11:02:29.898Z,44.99
2019-04-10T11:12:30.383Z,42.10
2019-04-10T11:17:28.303Z,44.01
2019-04-10T11:22:27.289Z,46.05
2019-04-10T11:27:28.075Z,44.31
2019-04-10T11:37:36.639Z,47.55
2019-04-10T11:42:26.876Z,45.98
2019-04-10T11:52:33.753Z,46.53
2019-04-10T11:57:30.198Z,45.91
2019-04-10T12:07:55.112Z,46.86
2019-04-10T12:12:25.978Z,46.06
2019-04-10T12:17:25.647Z,45.20
2019-04-10T12:22:26.053Z,44.45
2019-04-10T12:27:25.186Z,42.47
2019-04-10T12:32:24.940Z,44.01
2019-04-10T12:42:24.058Z,41.62
2019-04-10T12:47:24.119Z,42.00
2019-04-10T12:52:24.758Z,44.31
2019-04-10T13:02:23.409Z,44.71
2019-04-10T13:07:23.315Z,41.00
2019-04-10T13:12:21.476Z,43.61
2019-04-10T13:17:21.248Z,44.80
2019-04-10T13:22:22.168Z,45.05
2019-04-10T13:27:20.858Z,41.57
2019-04-10T13:37:21.050Z,41.73
2019-04-10T13:42:20.964Z,41.84
2019-04-10T13:47:19.633Z,40.52
2019-04-10T13:52:20.244Z,40.65
2019-04-10T14:02:18.454Z,41.31
2019-04-10T14:07:19.881Z,41.89
2019-04-10T14:12:19.198Z,41.05
2019-04-10T14:17:18.189Z,39.53
2019-04-10T14:22:18.127Z,42.58
2019-04-10T14:27:18.312Z,40.88
2019-04-10T14:32:18.318Z,44.07
2019-04-10T14:37:17.076Z,42.26
2019-04-10T14:42:18.241Z,43.30
2019-04-10T14:47:17.141Z,42.33
2019-04-10T14:57:15.364Z,41.18
2019-04-10T15:02:15.194Z,40.87
2019-04-10T15:07:14.623Z,41.96
2019-04-10T15:12:16.330Z,40.70
2019-04-10T15:17:14.768Z,42.22
2019-04-10T15:22:14.152Z,39.79
2019-04-10T15:27:15.299Z,39.91
2019-04-10T15:32:14.641Z,40.99
2019-04-10T15:37:13.462Z,40.60
2019-04-10T15:42:12.400Z,40.02
2019-04-10T15:52:12.130Z,40.99
2019-04-10T15:57:10.813Z,40.79
2019-04-10T16:02:11.373Z,42.96
2019-04-10T16:07:11.939Z,43.08
2019-04-10T16:12:11.334Z,40.55
2019-04-10T16:17:10.423Z,42.05
2019-04-10T16:22:10.760Z,42.66
2019-04-10T16:27:11.775Z,44.17
2019-04-10T16:32:10.704Z,42.48
2019-04-10T16:37:12.545Z,42.67
2019-04-10T16:42:10.618Z,44.12
2019-04-10T16:47:10.393Z,44.36
2019-04-10T16:52:09.354Z,44.84
2019-04-10T16:57:08.624Z,44.64
2019-04-10T17:02:07.598Z,45.74
2019-04-10T17:07:06.693Z,46.65
2019-04-10T17:12:06.947Z,45.27
2019-04-10T17:17:06.435Z,46.28
2019-04-10T17:27:07.831Z,47.08
2019-04-10T17:32:06.897Z,47.81
2019-04-10T17:37:05.681Z,48.74
2019-04-10T17:47:08.006Z,49.29
2019-04-10T17:52:06.306Z,49.39
2019-04-10T17:57:05.513Z,48.57
2019-04-10T18:02:05.549Z,50.59
2019-04-10T18:07:06.314Z,52.53
2019-04-10T18:12:06.069Z,51.79
2019-04-10T18:17:04.591Z,52.20
2019-04-10T18:22:04.082Z,53.09
2019-04-10T18:32:03.390Z,52.22
2019-04-10T18:37:02.868Z,53.12
2019-04-10T18:42:02.143Z,53.40
2019-04-10T18:47:01.226Z,53.02
2019-04-10T18:52:01.473Z,52.85
2019-04-10T19:02:01.436Z,52.96
2019-04-10T19:07:00.851Z,54.08
2019-04-10T19:12:00.433Z,54.57
2019-04-10T19:17:00.314Z,55.00
2019-04-10T19:22:00.018Z,55.69
2019-04-10T19:26:58.642Z,56.55
2019-04-10T19:31:58.195Z,56.92
2019-04-10T19:36:56.627Z,56.61
2019-04-10T19:41:55.702Z,56.64
2019-04-10T19:46:55.726Z,56.36
2019-04-10T19:51:54.217Z,57.24
2019-04-10T19:56:55.042Z,57.41
2019-04-10T20:01:55.326Z,57.17
2019-04-10T20:06:56.427Z,56.71
2019-04-10T20:11:56.128Z,56.90
2019-04-10T20:16:55.575Z,57.05
2019-04-10T20:21:54.594Z,58.60
2019-04-10T20:26:54.349Z,58.05
2019-04-10T20:31:53.412Z,58.25
2019-04-10T20:36:53.792Z,58.77
2019-04-10T20:41:55.065Z,59.69
2019-04-10T20:46:54.782Z,60.12
2019-04-10T20:56:51.435Z,60.96
2019-04-10T21:01:50.445Z,61.37
2019-04-10T21:06:50.108Z,61.72
2019-04-10T21:12:00.920Z,61.93
2019-04-10T21:16:49.806Z,62.40
2019-04-10T21:21:49.007Z,62.41
2019-04-10T21:26:48.714Z,62.30
2019-04-10T21:31:48.506Z,62.51
2019-04-10T21:36:49.547Z,62.81
2019-04-10T21:41:48.875Z,63.13
2019-04-10T21:46:48.605Z,63.03
2019-04-10T21:51:49.454Z,62.99
2019-04-10T21:56:49.391Z,63.60
2019-04-10T22:11:47.577Z,64.53
2019-04-10T22:16:46.349Z,65.42
2019-04-10T22:21:46.109Z,65.33
2019-04-10T22:26:44.547Z,65.47
2019-04-10T22:31:43.822Z,64.84
2019-04-10T22:36:42.808Z,65.09
2019-04-10T22:41:42.840Z,65.36
2019-04-10T22:46:42.670Z,65.55
2019-04-10T22:51:43.889Z,65.31
2019-04-10T22:56:42.274Z,65.10
2019-04-10T23:01:40.866Z,66.79
2019-04-10T23:06:41.628Z,66.50
2019-04-10T23:11:42.242Z,66.67
2019-04-10T23:16:40.054Z,66.26
2019-04-10T23:21:40.759Z,66.92
2019-04-10T23:26:39.524Z,67.16
2019-04-10T23:31:39.512Z,67.45
2019-04-10T23:36:40.311Z,67.60
2019-04-10T23:41:37.933Z,67.57
2019-04-10T23:46:38.806Z,68.26
2019-04-10T23:51:37.742Z,69.78
2019-04-10T23:56:37.833Z,68.81
